Time;durP1;ratioP1;P1;durP2;ratioP2;P2;SDS_P1;SDS_P2;PMS_P1;PMS_P2;Temp;Humidity;BMP_temperature;BMP_pressure;BME280_temperature;BME280_humidity;BME280_pressure;Samples;Min_cycle;Max_cycle;Signal;HPM_P1;HPM_P2
2023/11/10 00:01:11;;;;;;;5.27;3.20;;;;;;;;;;5092584;28;20287;-79
2023/11/10 00:03:38;;;;;;;5.13;3.13;;;;;;;;;;5105886;28;20698;-79
2023/11/10 00:06:05;;;;;;;4.30;3.40;;;;;;;;;;5105046;28;20572;-79
2023/11/10 00:08:33;;;;;;;3.83;3.23;;;;;;;;;;5092519;28;20196;-79
2023/11/10 00:11:02;;;;;;;4.87;3.53;;;;;;;;;;5105669;28;20206;-79
2023/11/10 00:13:28;;;;;;;4.77;3.67;;;;;;;;;;5092778;28;20200;-79
2023/11/10 00:15:56;;;;;;;4.37;3.93;;;;;;;;;;5092338;28;20201;-79
2023/11/10 00:18:22;;;;;;;3.27;2.97;;;;;;;;;;5105143;28;20634;-79
2023/11/10 00:20:49;;;;;;;6.60;3.67;;;;;;;;;;5092716;28;20204;-79
2023/11/10 00:23:18;;;;;;;4.10;3.40;;;;;;;;;;5104645;28;20593;-79
2023/11/10 00:25:45;;;;;;;3.77;3.47;;;;;;;;;;5104503;28;20258;-79
2023/11/10 00:28:13;;;;;;;3.43;3.13;;;;;;;;;;5100101;28;20701;-79
2023/11/10 00:30:40;;;;;;;4.03;3.43;;;;;;;;;;5097969;28;20667;-79
2023/11/10 00:33:07;;;;;;;3.53;3.00;;;;;;;;;;5104456;28;20212;-79
2023/11/10 00:35:33;;;;;;;4.73;3.30;;;;;;;;;;5091868;28;20204;-79
2023/11/10 00:38:03;;;;;;;3.73;3.00;;;;;;;;;;5100752;28;20202;-79
2023/11/10 00:40:31;;;;;;;3.53;3.27;;;;;;;;;;5098601;28;20291;-79
2023/11/10 00:42:57;;;;;;;3.60;3.10;;;;;;;;;;5103178;28;20279;-79
2023/11/10 00:45:26;;;;;;;3.93;3.43;;;;;;;;;;5093633;28;20713;-79
2023/11/10 00:47:52;;;;;;;3.43;3.13;;;;;;;;;;5102575;28;20287;-79
2023/11/10 00:50:19;;;;;;;3.90;2.97;;;;;;;;;;5107612;28;20212;-79
2023/11/10 00:52:46;;;;;;;5.27;4.07;;;;;;;;;;5102051;28;20590;-79
2023/11/10 00:55:13;;;;;;;4.63;2.80;;;;;;;;;;5091625;28;20200;-79
2023/11/10 00:57:40;;;;;;;5.97;3.60;;;;;;;;;;5102073;28;20592;-79
2023/11/10 01:00:08;;;;;;;4.17;3.30;;;;;;;;;;5098240;28;20203;-79
2023/11/10 01:02:37;;;;;;;3.40;3.10;;;;;;;;;;5101195;28;20576;-78
2023/11/10 01:05:04;;;;;;;3.70;3.40;;;;;;;;;;5095395;28;20215;-79
2023/11/10 01:07:31;;;;;;;5.93;4.40;;;;;;;;;;5100220;28;20219;-79
2023/11/10 01:09:58;;;;;;;5.60;5.10;;;;;;;;;;5091032;28;20200;-78
2023/11/10 01:12:25;;;;;;;4.60;4.20;;;;;;;;;;5103296;28;20290;-79
2023/11/10 01:14:52;;;;;;;6.17;3.73;;;;;;;;;;5092308;28;20585;-78
2023/11/10 01:17:18;;;;;;;3.90;3.57;;;;;;;;;;5091834;28;20232;-78
2023/11/10 01:19:47;;;;;;;5.50;4.03;;;;;;;;;;5098129;28;20210;-79
2023/11/10 01:22:13;;;;;;;3.87;3.33;;;;;;;;;;5098982;28;20210;-79
2023/11/10 01:24:40;;;;;;;3.67;3.10;;;;;;;;;;5104425;28;20227;-79
2023/11/10 01:27:07;;;;;;;4.07;3.67;;;;;;;;;;5103719;28;20203;-79
2023/11/10 01:29:34;;;;;;;2.77;2.57;;;;;;;;;;5104518;28;20204;-78
2023/11/10 01:32:02;;;;;;;3.47;3.17;;;;;;;;;;5091050;28;20207;-78
2023/11/10 01:34:28;;;;;;;3.43;3.13;;;;;;;;;;5097755;28;20203;-78
2023/11/10 01:36:57;;;;;;;4.03;3.73;;;;;;;;;;5110683;28;20204;-79
2023/11/10 01:39:24;;;;;;;4.50;4.10;;;;;;;;;;5097860;28;20252;-78
2023/11/10 01:41:52;;;;;;;3.83;3.43;;;;;;;;;;5096940;28;20312;-78
2023/11/10 01:44:19;;;;;;;5.30;4.53;;;;;;;;;;5090960;28;20255;-79
2023/11/10 01:46:46;;;;;;;3.20;3.00;;;;;;;;;;5091674;28;20282;-79
2023/11/10 01:49:15;;;;;;;4.50;3.17;;;;;;;;;;5102711;28;20269;-79
2023/11/10 01:51:42;;;;;;;3.10;2.80;;;;;;;;;;5090708;28;20235;-79
2023/11/10 01:54:12;;;;;;;3.60;3.30;;;;;;;;;;5090709;28;20298;-79
2023/11/10 01:56:39;;;;;;;5.73;4.23;;;;;;;;;;5103948;28;20215;-79
2023/11/10 01:59:06;;;;;;;5.03;3.93;;;;;;;;;;5090567;28;20682;-78
2023/11/10 02:01:34;;;;;;;4.43;4.03;;;;;;;;;;5091342;28;20208;-78
2023/11/10 02:04:03;;;;;;;5.23;4.40;;;;;;;;;;5090657;28;20273;-78
2023/11/10 02:06:31;;;;;;;4.10;3.70;;;;;;;;;;5090734;28;20363;-79
2023/11/10 02:08:59;;;;;;;4.80;3.80;;;;;;;;;;5090272;28;20216;-79
2023/11/10 02:11:29;;;;;;;4.57;3.53;;;;;;;;;;5104600;28;20283;-79
2023/11/10 02:14:00;;;;;;;4.20;3.60;;;;;;;;;;5101250;28;20276;-79
2023/11/10 02:16:27;;;;;;;3.83;3.10;;;;;;;;;;5092054;28;20283;-79
2023/11/10 02:18:54;;;;;;;5.40;3.43;;;;;;;;;;5102994;28;20207;-78
2023/11/10 02:21:21;;;;;;;3.90;3.50;;;;;;;;;;5110596;28;20580;-79
2023/11/10 02:23:50;;;;;;;6.13;3.20;;;;;;;;;;5098243;28;20196;-78
2023/11/10 02:26:18;;;;;;;275.33;146.53;;;;;;;;;;5090174;28;20745;-79
2023/11/10 02:28:45;;;;;;;128.47;67.60;;;;;;;;;;5090472;28;20211;-78
2023/11/10 02:31:13;;;;;;;105.87;55.87;;;;;;;;;;5097182;28;20204;-78
2023/11/10 02:33:39;;;;;;;113.97;62.80;;;;;;;;;;5110102;28;20692;-79
2023/11/10 02:36:07;;;;;;;68.13;35.63;;;;;;;;;;5103154;28;20666;-79
2023/11/10 02:38:34;;;;;;;25.87;16.13;;;;;;;;;;5103790;28;20696;-79
2023/11/10 02:41:04;;;;;;;16.80;10.30;;;;;;;;;;5089901;28;20215;-79
2023/11/10 02:43:32;;;;;;;21.30;14.90;;;;;;;;;;5092175;28;20216;-79
2023/11/10 02:45:59;;;;;;;12.90;8.27;;;;;;;;;;5110459;28;20249;-78
2023/11/10 02:48:26;;;;;;;8.60;6.53;;;;;;;;;;5108059;28;20204;-79
2023/11/10 02:50:53;;;;;;;7.90;6.10;;;;;;;;;;5094034;28;20201;-79
2023/11/10 02:53:20;;;;;;;8.87;6.77;;;;;;;;;;5107264;28;20206;-79
2023/11/10 02:55:46;;;;;;;10.27;6.70;;;;;;;;;;5102884;28;20248;-79
2023/11/10 02:58:13;;;;;;;10.53;8.67;;;;;;;;;;5098785;28;20209;-79
2023/11/10 03:00:42;;;;;;;10.00;7.20;;;;;;;;;;5093284;28;20200;-78
2023/11/10 03:03:10;;;;;;;8.20;6.37;;;;;;;;;;5109640;28;20237;-79
2023/11/10 03:05:37;;;;;;;6.60;5.87;;;;;;;;;;5105001;28;20309;-79
2023/11/10 03:08:05;;;;;;;5.77;5.27;;;;;;;;;;5096226;28;20204;-78
2023/11/10 03:10:32;;;;;;;8.40;6.47;;;;;;;;;;5113458;28;20196;-78
2023/11/10 03:12:59;;;;;;;5.33;4.83;;;;;;;;;;5113993;28;20206;-78
2023/11/10 03:15:27;;;;;;;6.50;4.70;;;;;;;;;;5103413;28;20708;-79
2023/11/10 03:17:55;;;;;;;7.20;4.73;;;;;;;;;;5097429;28;20195;-78
2023/11/10 03:20:23;;;;;;;5.67;5.10;;;;;;;;;;5113331;28;20200;-78
2023/11/10 03:22:49;;;;;;;6.03;5.20;;;;;;;;;;5100285;28;20668;-78
2023/11/10 03:25:16;;;;;;;6.07;5.10;;;;;;;;;;5101905;28;20234;-79
2023/11/10 03:27:43;;;;;;;5.90;5.30;;;;;;;;;;5106472;28;20701;-78
2023/11/10 03:30:11;;;;;;;5.57;5.07;;;;;;;;;;5104811;28;20673;-79
2023/11/10 03:32:38;;;;;;;6.37;5.77;;;;;;;;;;5099854;28;20590;-78
2023/11/10 03:35:08;;;;;;;7.20;5.97;;;;;;;;;;5113319;28;20214;-78
2023/11/10 03:37:35;;;;;;;6.10;5.50;;;;;;;;;;5093684;28;20652;-79
2023/11/10 03:40:05;;;;;;;6.00;5.37;;;;;;;;;;5105647;28;20674;-78
2023/11/10 03:42:32;;;;;;;5.83;5.23;;;;;;;;;;5106631;28;20227;-78
2023/11/10 03:44:59;;;;;;;6.43;5.83;;;;;;;;;;5106069;28;20207;-78
2023/11/10 03:47:25;;;;;;;6.77;5.17;;;;;;;;;;5092816;28;20208;-79
2023/11/10 03:49:52;;;;;;;6.37;5.73;;;;;;;;;;5092514;28;20204;-77
2023/11/10 03:52:21;;;;;;;5.20;4.70;;;;;;;;;;5092682;28;20207;-78
2023/11/10 03:54:47;;;;;;;5.33;4.83;;;;;;;;;;5093398;28;20211;-78
2023/11/10 03:57:14;;;;;;;5.80;5.30;;;;;;;;;;5113295;28;20196;-78
2023/11/10 03:59:41;;;;;;;5.23;4.70;;;;;;;;;;5098494;28;20215;-79
2023/11/10 04:02:09;;;;;;;7.33;5.70;;;;;;;;;;5092390;28;20200;-78
2023/11/10 04:04:36;;;;;;;12.07;8.33;;;;;;;;;;5093068;28;20205;-78
2023/11/10 04:07:03;;;;;;;14.03;11.07;;;;;;;;;;5112611;28;20650;-78
2023/11/10 04:09:33;;;;;;;12.60;11.00;;;;;;;;;;5112388;28;20582;-78
2023/11/10 04:12:04;;;;;;;11.33;9.33;;;;;;;;;;5100649;28;20197;-78
2023/11/10 04:14:31;;;;;;;16.13;12.90;;;;;;;;;;5111482;28;20195;-78
2023/11/10 04:16:57;;;;;;;12.67;11.33;;;;;;;;;;5112855;28;20222;-78
2023/11/10 04:19:24;;;;;;;11.17;8.33;;;;;;;;;;5105845;28;20638;-78
2023/11/10 04:21:51;;;;;;;7.43;6.50;;;;;;;;;;5092453;28;20204;-78
2023/11/10 04:24:18;;;;;;;7.00;5.90;;;;;;;;;;5091672;28;20200;-79
2023/11/10 04:26:47;;;;;;;5.97;5.10;;;;;;;;;;5092108;28;20259;-79
2023/11/10 04:29:13;;;;;;;4.57;4.00;;;;;;;;;;5112290;28;20295;-79
2023/11/10 04:31:40;;;;;;;4.53;4.13;;;;;;;;;;5111644;28;20203;-76
2023/11/10 04:34:07;;;;;;;5.10;4.00;;;;;;;;;;5099990;28;20272;-79
2023/11/10 04:36:35;;;;;;;5.27;4.77;;;;;;;;;;5111017;28;20216;-79
2023/11/10 04:39:06;;;;;;;5.43;4.93;;;;;;;;;;5099969;28;20222;-79
2023/11/10 04:41:33;;;;;;;5.73;4.97;;;;;;;;;;5098266;28;20694;-79
2023/11/10 04:44:05;;;;;;;8.47;5.47;;;;;;;;;;5102670;28;20205;-78
2023/11/10 04:46:32;;;;;;;8.57;7.67;;;;;;;;;;5097118;28;20230;-77
2023/11/10 04:49:01;;;;;;;11.17;10.07;;;;;;;;;;5112617;28;21038;-78
2023/11/10 04:51:29;;;;;;;13.33;12.07;;;;;;;;;;5094914;28;20196;-79
2023/11/10 04:53:55;;;;;;;13.03;11.10;;;;;;;;;;5091463;28;20207;-79
2023/11/10 04:56:22;;;;;;;14.00;12.60;;;;;;;;;;5091197;28;20193;-79
2023/11/10 04:58:50;;;;;;;10.50;9.50;;;;;;;;;;5091178;28;20208;-79
2023/11/10 05:01:19;;;;;;;8.50;7.60;;;;;;;;;;5105400;28;20199;-79
2023/11/10 05:03:48;;;;;;;6.97;6.33;;;;;;;;;;5090369;28;20253;-79
2023/11/10 05:06:15;;;;;;;6.53;5.83;;;;;;;;;;5101140;28;20223;-79
2023/11/10 05:08:42;;;;;;;6.20;5.60;;;;;;;;;;5093884;28;20232;-80
2023/11/10 05:11:11;;;;;;;6.47;5.87;;;;;;;;;;5095923;28;20282;-79
2023/11/10 05:13:38;;;;;;;6.43;5.20;;;;;;;;;;5107591;28;20197;-79
2023/11/10 05:16:06;;;;;;;5.60;5.10;;;;;;;;;;5090870;28;20232;-80
2023/11/10 05:18:37;;;;;;;7.80;5.43;;;;;;;;;;5091177;28;20279;-80
2023/11/10 05:21:04;;;;;;;6.40;5.73;;;;;;;;;;5102609;28;20200;-80
2023/11/10 05:23:31;;;;;;;6.33;5.40;;;;;;;;;;5106599;28;20208;-81
2023/11/10 05:25:57;;;;;;;6.03;5.10;;;;;;;;;;5096775;28;20219;-81
2023/11/10 05:28:24;;;;;;;7.70;6.97;;;;;;;;;;5110706;28;20700;-81
2023/11/10 05:30:51;;;;;;;9.93;6.83;;;;;;;;;;5097972;28;20212;-80
2023/11/10 05:33:18;;;;;;;8.60;6.30;;;;;;;;;;5097723;28;20200;-80
2023/11/10 05:35:46;;;;;;;18.83;9.70;;;;;;;;;;5104170;28;20211;-80
2023/11/10 05:38:13;;;;;;;12.97;8.13;;;;;;;;;;5105106;28;20209;-81
2023/11/10 05:40:40;;;;;;;10.23;6.40;;;;;;;;;;5090916;28;20679;-82
2023/11/10 05:43:08;;;;;;;6.90;5.50;;;;;;;;;;5090766;28;20727;-81
2023/11/10 05:45:35;;;;;;;25.57;12.80;;;;;;;;;;5090923;28;20200;-82
2023/11/10 05:48:05;;;;;;;18.97;11.67;;;;;;;;;;5102200;28;20680;-82
2023/11/10 05:50:32;;;;;;;17.97;11.27;;;;;;;;;;5105059;28;20772;-82
2023/11/10 05:53:03;;;;;;;16.00;9.97;;;;;;;;;;5100756;28;20200;-82
2023/11/10 05:55:32;;;;;;;9.47;8.07;;;;;;;;;;5094816;28;20202;-82
2023/11/10 05:57:59;;;;;;;13.90;6.10;;;;;;;;;;5109877;28;20204;-83
2023/11/10 06:00:26;;;;;;;8.13;5.60;;;;;;;;;;5090222;28;20200;-83
2023/11/10 06:02:55;;;;;;;9.33;6.27;;;;;;;;;;5103559;28;20210;-83
2023/11/10 06:05:23;;;;;;;6.80;5.60;;;;;;;;;;5090084;28;20200;-82
2023/11/10 06:07:53;;;;;;;6.00;5.10;;;;;;;;;;5090312;28;20257;-83
2023/11/10 06:10:21;;;;;;;5.43;4.93;;;;;;;;;;5098388;28;20214;-85
2023/11/10 06:12:49;;;;;;;5.13;4.63;;;;;;;;;;5097132;28;20215;-84
2023/11/10 06:15:17;;;;;;;8.53;7.17;;;;;;;;;;5102746;28;20207;-84
2023/11/10 06:17:44;;;;;;;10.00;7.33;;;;;;;;;;5092993;28;20207;-84
2023/11/10 06:20:13;;;;;;;9.27;8.00;;;;;;;;;;5101718;28;20320;-84
2023/11/10 06:22:40;;;;;;;10.40;7.87;;;;;;;;;;5104737;28;20199;-84
2023/11/10 06:25:08;;;;;;;11.67;9.47;;;;;;;;;;5103953;28;20620;-85
2023/11/10 06:27:36;;;;;;;10.20;8.27;;;;;;;;;;5101066;28;20231;-84
2023/11/10 06:30:04;;;;;;;14.70;11.20;;;;;;;;;;5115091;28;20204;-84
2023/11/10 06:32:32;;;;;;;8.90;7.60;;;;;;;;;;5111380;28;20200;-84
2023/11/10 06:34:59;;;;;;;13.87;9.33;;;;;;;;;;5094763;28;20208;-85
2023/11/10 06:37:26;;;;;;;9.40;8.50;;;;;;;;;;5108210;28;20203;-85
2023/11/10 06:39:53;;;;;;;11.20;10.00;;;;;;;;;;5094552;28;20207;-84
2023/11/10 06:42:20;;;;;;;8.37;7.37;;;;;;;;;;5098716;28;20327;-84
2023/11/10 06:44:49;;;;;;;8.63;7.40;;;;;;;;;;5103573;28;20222;-84
2023/11/10 06:47:16;;;;;;;11.47;9.07;;;;;;;;;;5112877;28;20258;-84
2023/11/10 06:49:43;;;;;;;11.30;9.27;;;;;;;;;;5102580;28;20227;-84
2023/11/10 06:52:11;;;;;;;10.90;8.03;;;;;;;;;;5113227;28;20291;-84
2023/11/10 06:54:38;;;;;;;12.47;7.90;;;;;;;;;;5113722;28;20207;-84
2023/11/10 06:57:06;;;;;;;8.30;6.57;;;;;;;;;;5108502;28;20208;-84
2023/11/10 06:59:34;;;;;;;8.53;7.47;;;;;;;;;;5107093;28;20215;-84
2023/11/10 07:02:03;;;;;;;11.80;7.30;;;;;;;;;;5100629;28;20295;-83
2023/11/10 07:04:30;;;;;;;8.43;7.43;;;;;;;;;;5114319;28;20605;-84
2023/11/10 07:06:56;;;;;;;10.63;7.07;;;;;;;;;;5107154;28;20616;-84
2023/11/10 07:09:25;;;;;;;7.83;6.30;;;;;;;;;;5093932;28;20196;-84
2023/11/10 07:11:52;;;;;;;8.10;6.10;;;;;;;;;;5093341;28;20563;-83
2023/11/10 07:14:19;;;;;;;8.10;6.87;;;;;;;;;;5093679;28;20205;-83
2023/11/10 07:16:45;;;;;;;9.90;7.03;;;;;;;;;;5094200;28;20261;-83
2023/11/10 07:19:14;;;;;;;8.03;7.23;;;;;;;;;;5107357;28;20195;-83
2023/11/10 07:21:40;;;;;;;9.07;8.03;;;;;;;;;;5106513;28;20200;-83
2023/11/10 07:24:09;;;;;;;10.50;7.23;;;;;;;;;;5093442;28;20250;-84
2023/11/10 07:26:35;;;;;;;8.80;6.20;;;;;;;;;;5101755;28;20637;-84
2023/11/10 07:29:03;;;;;;;6.10;5.43;;;;;;;;;;5098500;28;20204;-83
2023/11/10 07:31:31;;;;;;;7.03;5.00;;;;;;;;;;5093543;28;20272;-83
2023/11/10 07:33:59;;;;;;;5.10;4.57;;;;;;;;;;5093206;28;20224;-83
2023/11/10 07:36:27;;;;;;;8.37;3.73;;;;;;;;;;5102136;28;20199;-83
2023/11/10 07:38:54;;;;;;;4.43;4.03;;;;;;;;;;5099998;28;20708;-84
2023/11/10 07:41:21;;;;;;;4.50;3.13;;;;;;;;;;5103345;28;20869;-83
2023/11/10 07:43:48;;;;;;;4.93;4.53;;;;;;;;;;5093140;28;20197;-85
2023/11/10 07:46:15;;;;;;;4.73;4.33;;;;;;;;;;5103526;28;20756;-83
2023/11/10 07:48:42;;;;;;;4.37;3.97;;;;;;;;;;5095963;28;20207;-83
2023/11/10 07:51:09;;;;;;;4.57;4.20;;;;;;;;;;5092803;28;20290;-83
2023/11/10 07:53:38;;;;;;;4.77;4.27;;;;;;;;;;5097352;28;20583;-83
2023/11/10 07:56:05;;;;;;;3.80;3.50;;;;;;;;;;5113666;28;20586;-84
2023/11/10 07:58:32;;;;;;;4.10;3.70;;;;;;;;;;5108191;28;20200;-83
2023/11/10 08:00:59;;;;;;;6.67;3.93;;;;;;;;;;5092881;28;20207;-83
2023/11/10 08:03:26;;;;;;;3.63;3.23;;;;;;;;;;5106346;28;20216;-83
2023/11/10 08:05:53;;;;;;;3.73;3.43;;;;;;;;;;5103818;28;20198;-83
2023/11/10 08:08:20;;;;;;;3.93;3.53;;;;;;;;;;5107921;28;20318;-84
2023/11/10 08:10:48;;;;;;;4.87;3.63;;;;;;;;;;5104433;28;20586;-84
2023/11/10 08:13:15;;;;;;;4.50;3.50;;;;;;;;;;5107010;28;20201;-83
2023/11/10 08:15:43;;;;;;;5.27;2.87;;;;;;;;;;5104624;28;20665;-83
2023/11/10 08:18:11;;;;;;;2.80;2.60;;;;;;;;;;5112746;28;20196;-82
2023/11/10 08:20:39;;;;;;;3.73;3.07;;;;;;;;;;5113079;28;20215;-83
2023/11/10 08:23:06;;;;;;;2.93;2.73;;;;;;;;;;5111966;28;20208;-83
2023/11/10 08:25:33;;;;;;;4.17;2.77;;;;;;;;;;5099176;28;20673;-83
2023/11/10 08:28:05;;;;;;;3.87;2.80;;;;;;;;;;5092305;28;20223;-82
2023/11/10 08:30:32;;;;;;;2.70;2.50;;;;;;;;;;5092403;28;20212;-83
2023/11/10 08:33:00;;;;;;;2.80;2.60;;;;;;;;;;5100011;28;20208;-83
2023/11/10 08:35:27;;;;;;;3.97;2.80;;;;;;;;;;5111916;28;20649;-83
2023/11/10 08:37:54;;;;;;;4.20;2.60;;;;;;;;;;5112007;28;20203;-83
2023/11/10 08:40:21;;;;;;;4.87;2.97;;;;;;;;;;5111676;28;20203;-83
2023/11/10 08:42:50;;;;;;;3.10;2.90;;;;;;;;;;5112783;28;20227;-84
2023/11/10 08:45:18;;;;;;;2.97;2.77;;;;;;;;;;5098253;28;20212;-83
2023/11/10 08:47:45;;;;;;;6.93;3.00;;;;;;;;;;5112012;28;20231;-82
2023/11/10 08:50:12;;;;;;;2.93;2.63;;;;;;;;;;5110282;28;20630;-83
2023/11/10 08:52:41;;;;;;;3.37;3.07;;;;;;;;;;5100669;28;20203;-83
2023/11/10 08:55:10;;;;;;;3.17;2.77;;;;;;;;;;5095695;28;20208;-82
2023/11/10 08:57:38;;;;;;;3.57;3.20;;;;;;;;;;5101297;28;20196;-82
2023/11/10 09:00:07;;;;;;;3.43;2.97;;;;;;;;;;5094634;28;20698;-82
2023/11/10 09:02:36;;;;;;;2.83;2.63;;;;;;;;;;5091883;28;20203;-82
2023/11/10 09:05:03;;;;;;;2.53;2.33;;;;;;;;;;5091431;28;20196;-82
2023/11/10 09:07:32;;;;;;;2.90;2.70;;;;;;;;;;5091354;28;20709;-82
2023/11/10 09:09:59;;;;;;;2.53;2.27;;;;;;;;;;5096504;28;20202;-82
2023/11/10 09:12:28;;;;;;;5.47;4.10;;;;;;;;;;5111436;28;20697;-82
2023/11/10 09:14:55;;;;;;;3.50;3.20;;;;;;;;;;5097813;28;20290;-83
2023/11/10 09:17:23;;;;;;;3.40;2.67;;;;;;;;;;5098675;28;20207;-83
2023/11/10 09:19:51;;;;;;;3.80;2.33;;;;;;;;;;5091152;28;20688;-82
2023/11/10 09:22:18;;;;;;;2.50;2.30;;;;;;;;;;5104925;28;20235;-82
2023/11/10 09:24:45;;;;;;;3.10;2.50;;;;;;;;;;5091149;28;20257;-82
2023/11/10 09:27:12;;;;;;;3.13;2.70;;;;;;;;;;5104983;28;20227;-82
2023/11/10 09:29:39;;;;;;;2.97;2.63;;;;;;;;;;5090968;28;20200;-82
2023/11/10 09:32:10;;;;;;;3.40;3.10;;;;;;;;;;5105308;28;20207;-82
2023/11/10 09:34:37;;;;;;;3.83;3.50;;;;;;;;;;5111286;28;20195;-82
2023/11/10 09:37:05;;;;;;;3.33;3.03;;;;;;;;;;5096638;28;20218;-82
2023/11/10 09:39:32;;;;;;;3.47;3.17;;;;;;;;;;5091130;28;20196;-82
2023/11/10 09:42:05;;;;;;;5.40;2.87;;;;;;;;;;5092669;28;20239;-82
2023/11/10 09:44:31;;;;;;;6.10;3.97;;;;;;;;;;5101968;28;20197;-82
2023/11/10 09:47:00;;;;;;;3.80;3.50;;;;;;;;;;5093510;28;20208;-82
2023/11/10 09:49:28;;;;;;;3.30;3.00;;;;;;;;;;5101387;28;20196;-82
2023/11/10 09:51:55;;;;;;;3.33;3.00;;;;;;;;;;5094208;28;20191;-82
2023/11/10 09:54:24;;;;;;;3.33;3.03;;;;;;;;;;5110859;28;20210;-83
2023/11/10 09:56:52;;;;;;;3.63;3.33;;;;;;;;;;5093665;28;20200;-82
2023/11/10 09:59:21;;;;;;;2.60;2.40;;;;;;;;;;5105289;28;20206;-82
2023/11/10 10:01:48;;;;;;;4.00;3.53;;;;;;;;;;5115712;28;20677;-81
2023/11/10 10:04:16;;;;;;;4.50;3.03;;;;;;;;;;5104021;28;20223;-81
2023/11/10 10:06:43;;;;;;;4.37;3.30;;;;;;;;;;5113175;28;20203;-82
2023/11/10 10:09:10;;;;;;;3.30;2.70;;;;;;;;;;5103075;28;20235;-82
2023/11/10 10:11:39;;;;;;;4.50;2.97;;;;;;;;;;5108792;28;20224;-82
2023/11/10 10:14:07;;;;;;;3.40;2.50;;;;;;;;;;5106672;28;20206;-82
2023/11/10 10:16:34;;;;;;;3.47;2.37;;;;;;;;;;5101307;28;20195;-82
2023/11/10 10:19:02;;;;;;;2.67;2.47;;;;;;;;;;5114999;28;20207;-82
2023/11/10 10:21:29;;;;;;;2.87;2.20;;;;;;;;;;5095016;28;20223;-82
2023/11/10 10:23:56;;;;;;;2.57;2.37;;;;;;;;;;5092950;28;20227;-84
2023/11/10 10:26:23;;;;;;;3.63;2.60;;;;;;;;;;5108329;28;20620;-83
2023/11/10 10:28:51;;;;;;;2.63;2.43;;;;;;;;;;5094702;28;20228;-82
2023/11/10 10:31:18;;;;;;;3.87;2.77;;;;;;;;;;5115057;28;20192;-82
2023/11/10 10:33:45;;;;;;;2.70;2.50;;;;;;;;;;5113557;28;20211;-82
2023/11/10 10:36:13;;;;;;;4.00;2.50;;;;;;;;;;5094570;28;20203;-82
2023/11/10 10:38:43;;;;;;;5.40;3.10;;;;;;;;;;5095698;28;20204;-82
2023/11/10 10:41:14;;;;;;;5.20;2.77;;;;;;;;;;5114681;28;20227;-81
2023/11/10 10:43:41;;;;;;;5.20;2.53;;;;;;;;;;5114053;28;20200;-81
2023/11/10 10:46:10;;;;;;;4.47;3.03;;;;;;;;;;5105098;28;20294;-81
2023/11/10 10:48:39;;;;;;;3.20;2.70;;;;;;;;;;5110326;28;20223;-82
2023/11/10 10:51:06;;;;;;;3.87;2.90;;;;;;;;;;5113882;28;20195;-81
2023/11/10 10:53:34;;;;;;;5.47;3.00;;;;;;;;;;5110350;28;20205;-82
2023/11/10 10:56:02;;;;;;;2.97;2.40;;;;;;;;;;5094181;28;20200;-81
2023/11/10 10:58:30;;;;;;;3.63;3.17;;;;;;;;;;5094356;28;20214;-81
2023/11/10 11:00:58;;;;;;;3.07;2.50;;;;;;;;;;5093892;28;20210;-81
2023/11/10 11:03:46;;;;;;;3.50;3.00;;;;;;;;;;5106980;28;20196;-82
2023/11/10 11:06:36;;;;;;;3.90;3.50;;;;;;;;;;5108143;28;20249;-81
2023/11/10 11:09:13;;;;;;;3.60;3.13;;;;;;;;;;5102221;28;20240;-81
2023/11/10 11:11:58;;;;;;;3.23;2.93;;;;;;;;;;5112756;28;20210;-82
2023/11/10 11:14:44;;;;;;;4.87;2.80;;;;;;;;;;5111517;28;20672;-82
2023/11/10 11:17:37;;;;;;;4.40;3.73;;;;;;;;;;5105086;28;20204;-81
2023/11/10 11:20:06;;;;;;;4.13;3.60;;;;;;;;;;5113715;28;20290;-81
2023/11/10 11:22:35;;;;;;;5.40;4.03;;;;;;;;;;5113019;28;20231;-81
2023/11/10 11:25:08;;;;;;;6.23;4.00;;;;;;;;;;5113505;28;20218;-81
2023/11/10 11:27:35;;;;;;;14.03;8.63;;;;;;;;;;5096824;28;20227;-81
2023/11/10 11:30:08;;;;;;;4.37;3.97;;;;;;;;;;5103191;28;20203;-80
2023/11/10 11:32:40;;;;;;;3.83;3.53;;;;;;;;;;5095546;28;20647;-81
2023/11/10 11:35:11;;;;;;;4.70;3.83;;;;;;;;;;5093340;28;20579;-81
2023/11/10 11:37:39;;;;;;;6.40;5.70;;;;;;;;;;5112895;28;20196;-81
2023/11/10 11:40:09;;;;;;;12.07;10.97;;;;;;;;;;5099717;28;20224;-81
2023/11/10 11:42:37;;;;;;;5.03;4.57;;;;;;;;;;5093075;28;20228;-80
2023/11/10 11:45:12;;;;;;;7.60;5.00;;;;;;;;;;5107514;28;20199;-80
2023/11/10 11:47:39;;;;;;;7.30;4.60;;;;;;;;;;5112725;28;20281;-80
2023/11/10 11:50:09;;;;;;;5.77;5.03;;;;;;;;;;5096851;28;20202;-81
2023/11/10 11:52:37;;;;;;;7.93;6.00;;;;;;;;;;5103026;28;20286;-81
2023/11/10 11:55:04;;;;;;;6.50;5.60;;;;;;;;;;5096037;28;20192;-80
2023/11/10 11:57:34;;;;;;;12.33;7.73;;;;;;;;;;5092900;28;20217;-81
2023/11/10 12:00:02;;;;;;;9.77;8.43;;;;;;;;;;5092330;28;20219;-81
2023/11/10 12:02:29;;;;;;;13.43;10.53;;;;;;;;;;5102661;28;20281;-82
2023/11/10 12:04:55;;;;;;;9.30;8.33;;;;;;;;;;5096076;28;20192;-80
2023/11/10 12:07:24;;;;;;;8.10;7.00;;;;;;;;;;5103210;28;20222;-81
2023/11/10 12:09:51;;;;;;;12.47;8.63;;;;;;;;;;5108481;28;20218;-80
2023/11/10 12:12:18;;;;;;;14.10;10.37;;;;;;;;;;5103019;28;20755;-80
2023/11/10 12:14:45;;;;;;;14.77;9.83;;;;;;;;;;5099252;28;20210;-80
2023/11/10 12:17:11;;;;;;;16.97;11.37;;;;;;;;;;5101677;28;20204;-80
2023/11/10 12:19:39;;;;;;;20.40;14.33;;;;;;;;;;5105279;28;20196;-81
2023/11/10 12:22:06;;;;;;;19.20;15.93;;;;;;;;;;5091553;28;20200;-81
2023/11/10 12:24:35;;;;;;;16.17;13.87;;;;;;;;;;5092290;28;20274;-80
2023/11/10 12:27:05;;;;;;;24.30;17.83;;;;;;;;;;5092558;28;20200;-80
2023/11/10 12:29:32;;;;;;;16.57;12.83;;;;;;;;;;5105376;28;20223;-81
2023/11/10 12:31:59;;;;;;;12.97;9.57;;;;;;;;;;5092412;28;20204;-81
2023/11/10 12:34:26;;;;;;;11.53;9.30;;;;;;;;;;5097959;28;20204;-81
2023/11/10 12:36:55;;;;;;;17.83;10.77;;;;;;;;;;5098935;28;20697;-80
2023/11/10 12:39:22;;;;;;;12.57;9.80;;;;;;;;;;5098362;28;20260;-81
2023/11/10 12:41:52;;;;;;;15.27;8.27;;;;;;;;;;5111637;28;20231;-81
2023/11/10 12:44:19;;;;;;;15.07;10.43;;;;;;;;;;5092157;28;20221;-80
2023/11/10 12:46:57;;;;;;;11.63;9.80;;;;;;;;;;5105120;28;20204;-80
2023/11/10 12:49:24;;;;;;;14.73;10.80;;;;;;;;;;5101621;28;20612;-81
2023/11/10 12:51:51;;;;;;;14.20;9.20;;;;;;;;;;5111828;28;20234;-80
2023/11/10 12:54:22;;;;;;;11.87;8.27;;;;;;;;;;5112096;28;20271;-81
2023/11/10 12:56:50;;;;;;;12.27;8.77;;;;;;;;;;5108066;28;20227;-80
2023/11/10 12:59:25;;;;;;;8.90;7.87;;;;;;;;;;5092623;28;20283;-80
2023/11/10 13:01:52;;;;;;;9.93;6.23;;;;;;;;;;5091371;28;20273;-81
2023/11/10 13:04:19;;;;;;;12.73;8.17;;;;;;;;;;5103569;28;20207;-80
2023/11/10 13:06:47;;;;;;;11.60;6.40;;;;;;;;;;5097516;28;20206;-81
2023/11/10 13:09:17;;;;;;;9.33;7.30;;;;;;;;;;5111000;28;20234;-81
2023/11/10 13:11:44;;;;;;;13.40;8.43;;;;;;;;;;5097736;28;20207;-80
2023/11/10 13:14:13;;;;;;;19.27;11.87;;;;;;;;;;5111237;28;20590;-80
2023/11/10 13:16:40;;;;;;;16.63;10.87;;;;;;;;;;5104899;28;20200;-81
2023/11/10 13:19:08;;;;;;;10.63;8.07;;;;;;;;;;5091137;28;20593;-81
2023/11/10 13:21:35;;;;;;;18.17;13.93;;;;;;;;;;5091186;28;20202;-80
2023/11/10 13:24:02;;;;;;;41.80;22.63;;;;;;;;;;5090463;28;20598;-81
2023/11/10 13:26:29;;;;;;;20.07;12.80;;;;;;;;;;5091783;28;20196;-81
2023/11/10 13:28:56;;;;;;;20.23;13.10;;;;;;;;;;5091610;28;20609;-80
2023/11/10 13:31:28;;;;;;;21.50;15.23;;;;;;;;;;5091185;28;20586;-81
2023/11/10 13:33:55;;;;;;;32.90;21.57;;;;;;;;;;5103974;28;20289;-80
2023/11/10 13:36:22;;;;;;;42.93;24.77;;;;;;;;;;5091060;28;20208;-80
2023/11/10 13:38:49;;;;;;;35.50;22.93;;;;;;;;;;5104305;28;20219;-80
2023/11/10 13:41:16;;;;;;;45.30;28.37;;;;;;;;;;5091093;28;20231;-80
2023/11/10 13:43:44;;;;;;;35.13;24.30;;;;;;;;;;5107346;28;20207;-81
2023/11/10 13:46:11;;;;;;;39.97;26.10;;;;;;;;;;5110783;28;20199;-80
2023/11/10 13:48:39;;;;;;;50.63;29.53;;;;;;;;;;5097330;28;20228;-81
2023/11/10 13:51:07;;;;;;;49.67;26.77;;;;;;;;;;5099826;28;20599;-81
2023/11/10 13:53:34;;;;;;;113.43;56.37;;;;;;;;;;5094285;28;20199;-81
2023/11/10 13:56:04;;;;;;;45.67;31.07;;;;;;;;;;5099726;28;20234;-80
2023/11/10 13:58:33;;;;;;;87.77;58.43;;;;;;;;;;5104111;28;20265;-81
2023/11/10 14:01:00;;;;;;;35.43;30.67;;;;;;;;;;5090335;28;20206;-80
2023/11/10 14:03:34;;;;;;;15.10;13.57;;;;;;;;;;5095529;28;20211;-80
2023/11/10 14:06:08;;;;;;;17.37;15.53;;;;;;;;;;5098549;28;20230;-80
2023/11/10 14:08:38;;;;;;;24.20;18.37;;;;;;;;;;5090838;28;20226;-80
2023/11/10 14:11:05;;;;;;;11.03;8.07;;;;;;;;;;5090933;28;20196;-81
2023/11/10 14:13:32;;;;;;;12.70;8.97;;;;;;;;;;5103496;28;20203;-80
2023/11/10 14:15:58;;;;;;;14.07;8.20;;;;;;;;;;5104446;28;20577;-81
2023/11/10 14:18:26;;;;;;;16.60;10.30;;;;;;;;;;5090665;28;20203;-80
2023/11/10 14:20:55;;;;;;;12.90;8.27;;;;;;;;;;5091413;28;20757;-80
2023/11/10 14:23:24;;;;;;;18.93;11.60;;;;;;;;;;5102764;28;20242;-81
2023/11/10 14:25:53;;;;;;;13.00;10.53;;;;;;;;;;5092469;28;20592;-80
2023/11/10 14:28:20;;;;;;;10.00;8.47;;;;;;;;;;5110683;28;20234;-81
2023/11/10 14:30:47;;;;;;;8.03;7.23;;;;;;;;;;5097293;28;20219;-80
2023/11/10 14:33:14;;;;;;;12.77;7.87;;;;;;;;;;5101365;28;20224;-80
2023/11/10 14:35:41;;;;;;;18.57;13.90;;;;;;;;;;5090140;28;20670;-80
2023/11/10 14:38:12;;;;;;;9.47;6.10;;;;;;;;;;5100856;28;20204;-80
2023/11/10 14:40:42;;;;;;;12.70;8.33;;;;;;;;;;5105825;28;20212;-80